createdAt,value
2019-01-04T00:01:39.815Z,47.30
2019-01-04T00:04:19.075Z,47.20
2019-01-04T00:06:51.256Z,47.30
2019-01-04T00:09:23.416Z,47.30
2019-01-04T00:11:55.567Z,47.20
2019-01-04T00:14:28.666Z,47.20
2019-01-04T00:17:00.827Z,47.20
2019-01-04T00:19:32.957Z,47.30
2019-01-04T00:22:05.220Z,47.30
2019-01-04T00:24:37.498Z,47.20
2019-01-04T00:27:09.656Z,47.20
2019-01-04T00:29:41.789Z,47.10
2019-01-04T00:32:13.942Z,47.10
2019-01-04T00:34:46.081Z,47.10
2019-01-04T00:37:18.421Z,47.10
2019-01-04T00:39:50.556Z,47.00
2019-01-04T00:42:22.715Z,47.10
2019-01-04T00:44:54.850Z,47.10
2019-01-04T00:47:27.030Z,47.10
2019-01-04T00:49:59.179Z,47.10
2019-01-04T00:52:31.425Z,47.00
2019-01-04T00:55:45.162Z,47.10
2019-01-04T00:59:15.451Z,47.20
2019-01-04T01:03:05.209Z,47.20
2019-01-04T01:06:32.678Z,47.40
2019-01-04T01:10:22.879Z,47.30
2019-01-04T01:13:56.205Z,47.50
2019-01-04T01:17:20.145Z,47.50
2019-01-04T01:20:32.559Z,47.50
2019-01-04T01:24:09.094Z,47.60
2019-01-04T01:27:30.015Z,47.60
2019-01-04T01:31:04.761Z,47.50
2019-01-04T01:34:45.380Z,47.50
2019-01-04T01:38:28.919Z,47.50
2019-01-04T01:42:06.754Z,47.40
2019-01-04T01:45:40.072Z,47.50
2019-01-04T01:49:31.055Z,47.50
2019-01-04T01:52:14.758Z,48.10
2019-01-04T01:54:47.084Z,47.50
2019-01-04T01:57:19.390Z,47.60
2019-01-04T01:59:51.588Z,47.70
2019-01-04T02:02:23.914Z,47.60
2019-01-04T02:04:56.224Z,47.50
2019-01-04T02:07:28.616Z,47.40
2019-01-04T02:10:01.033Z,47.30
2019-01-04T02:12:33.409Z,47.20
2019-01-04T02:15:06.749Z,47.10
2019-01-04T02:17:39.035Z,47.00
2019-01-04T02:20:11.429Z,47.00
2019-01-04T02:22:43.740Z,47.00
2019-01-04T02:25:16.085Z,47.00
2019-01-04T02:27:48.478Z,47.00
2019-01-04T02:30:20.692Z,47.00
2019-01-04T02:32:52.944Z,47.00
2019-01-04T02:35:25.197Z,47.10
2019-01-04T02:37:57.511Z,47.00
2019-01-04T02:40:29.861Z,47.70
2019-01-04T02:43:02.253Z,47.20
2019-01-04T02:45:34.582Z,47.20
2019-01-04T02:48:06.716Z,47.60
2019-01-04T02:50:39.003Z,47.40
2019-01-04T02:53:11.128Z,47.50
2019-01-04T02:55:43.272Z,47.40
2019-01-04T02:58:15.324Z,47.50
2019-01-04T03:00:47.628Z,47.40
2019-01-04T03:03:19.856Z,47.30
2019-01-04T03:05:52.016Z,47.30
2019-01-04T03:08:24.147Z,47.20
2019-01-04T03:10:56.373Z,47.30
2019-01-04T03:13:28.506Z,47.40
2019-01-04T03:16:00.668Z,47.50
2019-01-04T03:18:32.877Z,47.40
2019-01-04T03:21:05.041Z,47.40
2019-01-04T03:23:37.175Z,47.30
2019-01-04T03:26:09.330Z,47.10
2019-01-04T03:28:41.474Z,47.10
2019-01-04T03:31:13.637Z,47.20
2019-01-04T03:33:45.842Z,47.10
2019-01-04T03:36:18.266Z,47.00
2019-01-04T03:38:50.673Z,47.00
2019-01-04T03:41:23.006Z,47.00
2019-01-04T03:43:55.309Z,47.30
2019-01-04T03:46:27.590Z,47.30
2019-01-04T03:48:59.942Z,47.40
2019-01-04T03:51:32.459Z,47.50
2019-01-04T03:54:04.763Z,47.50
2019-01-04T03:56:37.127Z,47.50
2019-01-04T03:59:09.375Z,47.40
2019-01-04T04:01:41.580Z,47.50
2019-01-04T04:04:13.978Z,47.40
2019-01-04T04:06:46.238Z,47.40
2019-01-04T04:09:18.481Z,47.50
2019-01-04T04:11:50.834Z,47.40
2019-01-04T04:14:23.138Z,47.50
2019-01-04T04:16:55.413Z,47.50
2019-01-04T04:19:27.827Z,47.50
2019-01-04T04:22:01.054Z,47.50
2019-01-04T04:24:33.178Z,47.60
2019-01-04T04:27:05.344Z,47.50
2019-01-04T04:29:37.494Z,48.20
2019-01-04T04:32:09.633Z,47.40
2019-01-04T04:34:41.775Z,47.20
2019-01-04T04:37:13.941Z,47.20
2019-01-04T04:39:46.150Z,47.20
2019-01-04T04:42:18.307Z,47.20
2019-01-04T04:44:50.662Z,47.30
2019-01-04T04:47:22.880Z,47.30
2019-01-04T04:49:55.009Z,47.40
2019-01-04T04:52:27.183Z,47.40
2019-01-04T04:54:59.308Z,47.40
2019-01-04T04:57:31.484Z,47.40
2019-01-04T05:00:03.769Z,47.50
2019-01-04T05:02:36.292Z,47.30
2019-01-04T05:05:08.427Z,47.20
2019-01-04T05:07:40.597Z,47.30
2019-01-04T05:10:12.732Z,47.20
2019-01-04T05:12:44.989Z,47.20
2019-01-04T05:15:17.064Z,47.20
2019-01-04T05:17:49.237Z,47.20
2019-01-04T05:20:21.375Z,47.20
2019-01-04T05:22:53.538Z,47.20
2019-01-04T05:25:25.682Z,47.20
2019-01-04T05:27:57.850Z,47.10
2019-01-04T05:30:30.232Z,47.00
2019-01-04T05:33:02.961Z,47.00
2019-01-04T05:35:35.288Z,46.90
2019-01-04T05:38:07.688Z,46.90
2019-01-04T05:40:39.928Z,46.80
2019-01-04T05:43:12.343Z,46.80
2019-01-04T05:45:46.680Z,46.80
2019-01-04T05:48:18.743Z,46.90
2019-01-04T05:50:50.919Z,47.00
2019-01-04T05:53:23.263Z,47.00
2019-01-04T05:55:56.746Z,46.90
2019-01-04T05:58:29.104Z,46.80
2019-01-04T06:01:01.412Z,46.80
2019-01-04T06:03:33.715Z,46.90
2019-01-04T06:06:06.034Z,46.90
2019-01-04T06:08:38.479Z,46.80
2019-01-04T06:11:10.790Z,46.80
2019-01-04T06:13:43.188Z,46.80
2019-01-04T06:16:15.512Z,46.70
2019-01-04T06:18:47.779Z,46.70
2019-01-04T06:21:20.093Z,46.70
2019-01-04T06:23:52.394Z,46.70
2019-01-04T06:26:24.631Z,46.80
2019-01-04T06:28:57.053Z,46.70
2019-01-04T06:31:29.437Z,46.80
2019-01-04T06:34:01.778Z,46.80
2019-01-04T06:36:34.094Z,46.80
2019-01-04T06:39:08.792Z,46.90
2019-01-04T06:41:41.131Z,47.00
2019-01-04T06:44:13.477Z,47.00
2019-01-04T06:47:18.183Z,47.10
2019-01-04T06:49:51.950Z,47.00
2019-01-04T06:52:25.001Z,47.10
2019-01-04T06:55:54.586Z,47.00
2019-01-04T06:58:26.979Z,47.00
2019-01-04T07:01:00.328Z,46.80
2019-01-04T07:03:32.609Z,46.80
2019-01-04T07:06:04.888Z,46.80
2019-01-04T07:08:37.120Z,46.70
2019-01-04T07:11:10.627Z,46.80
2019-01-04T07:13:42.765Z,46.80
2019-01-04T07:16:14.922Z,46.80
2019-01-04T07:18:47.051Z,46.80
2019-01-04T07:21:19.552Z,46.80
2019-01-04T07:23:51.881Z,47.00
2019-01-04T07:26:24.295Z,46.90
2019-01-04T07:28:56.547Z,46.90
2019-01-04T07:31:28.900Z,46.90
2019-01-04T07:34:01.225Z,47.00
2019-01-04T07:36:33.569Z,47.00
2019-01-04T07:39:07.438Z,46.90
2019-01-04T07:41:39.787Z,46.90
2019-01-04T07:44:12.048Z,46.80
2019-01-04T07:46:44.232Z,46.70
2019-01-04T07:49:16.623Z,46.80
2019-01-04T07:51:48.951Z,46.80
2019-01-04T07:54:21.349Z,47.00
2019-01-04T07:56:53.764Z,47.00
2019-01-04T07:59:26.123Z,47.00
2019-01-04T08:01:58.568Z,47.10
2019-01-04T08:04:30.906Z,47.10
2019-01-04T08:07:03.267Z,47.10
2019-01-04T08:09:35.511Z,47.00
2019-01-04T08:12:07.944Z,47.00
2019-01-04T08:14:40.269Z,47.30
2019-01-04T08:17:12.471Z,47.20
2019-01-04T08:19:44.770Z,47.20
2019-01-04T08:22:17.113Z,47.40
2019-01-04T08:24:49.469Z,47.50
2019-01-04T08:27:21.639Z,47.60
2019-01-04T08:29:53.846Z,47.60
2019-01-04T08:32:26.013Z,47.60
2019-01-04T08:34:58.364Z,47.50
2019-01-04T08:37:30.797Z,47.60
2019-01-04T08:40:02.967Z,47.40
2019-01-04T08:42:35.129Z,47.50
2019-01-04T08:45:09.877Z,47.60
2019-01-04T08:47:42.207Z,47.60
2019-01-04T08:50:15.938Z,47.70
2019-01-04T08:52:48.105Z,47.70
2019-01-04T08:55:27.647Z,47.80
2019-01-04T08:58:00.011Z,47.80
2019-01-04T09:00:32.223Z,47.70
2019-01-04T09:03:04.535Z,47.80
2019-01-04T09:05:36.678Z,47.80
2019-01-04T09:08:08.847Z,47.90
2019-01-04T09:10:41.979Z,47.80
2019-01-04T09:13:14.150Z,48.00
2019-01-04T09:15:46.284Z,48.10
2019-01-04T09:18:18.443Z,48.20
2019-01-04T09:20:50.590Z,48.00
2019-01-04T09:23:22.896Z,48.00
2019-01-04T09:25:55.019Z,48.20
2019-01-04T09:28:27.175Z,48.30
2019-01-04T09:30:59.301Z,48.30
2019-01-04T09:33:31.458Z,48.10
2019-01-04T09:36:03.627Z,48.10
2019-01-04T09:38:35.762Z,48.10
2019-01-04T09:41:32.828Z,48.10
2019-01-04T09:44:05.731Z,48.10
2019-01-04T09:46:38.041Z,48.10
2019-01-04T09:49:10.386Z,48.00
2019-01-04T09:51:42.812Z,48.10
2019-01-04T09:54:15.157Z,48.00
2019-01-04T09:56:47.593Z,48.10
2019-01-04T09:59:19.885Z,48.40
2019-01-04T10:01:52.277Z,48.40
2019-01-04T10:04:25.505Z,48.40
2019-01-04T10:06:57.846Z,48.40
2019-01-04T10:09:30.189Z,48.30
2019-01-04T10:12:02.586Z,48.20
2019-01-04T10:14:35.328Z,48.10
2019-01-04T10:17:07.713Z,48.10
2019-01-04T10:19:40.066Z,48.20
2019-01-04T10:22:12.350Z,48.10
2019-01-04T10:24:44.769Z,48.10
2019-01-04T10:27:17.099Z,48.10
2019-01-04T10:29:49.528Z,48.10
2019-01-04T10:32:21.924Z,48.10
2019-01-04T10:34:54.274Z,48.30
2019-01-04T10:37:27.586Z,48.30
2019-01-04T10:39:59.808Z,48.30
2019-01-04T10:42:32.078Z,48.20
2019-01-04T10:45:05.351Z,48.10
2019-01-04T10:47:37.558Z,48.10
2019-01-04T10:50:10.043Z,48.20
2019-01-04T10:52:42.438Z,48.20
2019-01-04T10:55:14.777Z,48.20
2019-01-04T10:57:47.090Z,48.20
2019-01-04T11:00:19.440Z,48.20
2019-01-04T11:02:51.788Z,48.10
2019-01-04T11:05:24.154Z,48.20
2019-01-04T11:07:56.487Z,48.30
2019-01-04T11:10:28.770Z,48.30
2019-01-04T11:13:01.029Z,48.20
2019-01-04T11:15:33.453Z,48.30
2019-01-04T11:18:09.892Z,48.20
2019-01-04T11:20:47.880Z,48.20
2019-01-04T11:24:18.889Z,48.30
2019-01-04T11:27:07.548Z,48.50
2019-01-04T11:30:26.231Z,48.90
2019-01-04T11:33:43.070Z,48.40
2019-01-04T11:37:11.252Z,48.40
2019-01-04T11:40:46.362Z,48.30
2019-01-04T11:43:58.288Z,48.30
2019-01-04T11:47:03.748Z,48.40
2019-01-04T11:49:58.528Z,48.40
2019-01-04T11:52:44.947Z,48.40
2019-01-04T11:55:17.196Z,48.30
2019-01-04T11:57:49.622Z,48.30
2019-01-04T12:00:21.840Z,48.30
2019-01-04T12:02:54.131Z,48.50
2019-01-04T12:05:26.505Z,48.40
2019-01-04T12:07:58.846Z,48.40
2019-01-04T12:10:31.162Z,48.40
2019-01-04T12:13:03.589Z,48.40
2019-01-04T12:15:35.814Z,48.60
2019-01-04T12:18:08.156Z,48.40
2019-01-04T12:20:45.399Z,48.50
2019-01-04T12:23:15.769Z,48.40
2019-01-04T12:25:48.143Z,48.40
2019-01-04T12:28:20.497Z,48.50
2019-01-04T12:30:52.895Z,48.50
2019-01-04T12:33:25.253Z,48.40
2019-01-04T12:35:57.478Z,48.40
2019-01-04T12:38:29.820Z,48.30
2019-01-04T12:41:02.268Z,48.50
2019-01-04T12:43:34.515Z,48.40
2019-01-04T12:46:06.684Z,48.40
2019-01-04T12:48:38.961Z,48.30
2019-01-04T12:51:11.203Z,48.20
2019-01-04T12:53:43.647Z,48.30
2019-01-04T12:56:15.888Z,48.30
2019-01-04T12:58:49.277Z,48.30
2019-01-04T13:01:21.980Z,48.30
2019-01-04T13:03:54.338Z,48.20
2019-01-04T13:06:26.578Z,48.10
2019-01-04T13:08:58.921Z,48.30
2019-01-04T13:11:31.300Z,48.40
2019-01-04T13:14:03.961Z,48.20
2019-01-04T13:16:36.277Z,48.20
2019-01-04T13:19:08.600Z,48.30
2019-01-04T13:21:40.944Z,48.40
2019-01-04T13:24:13.115Z,48.30
2019-01-04T13:26:45.532Z,48.20
2019-01-04T13:29:17.951Z,48.30
2019-01-04T13:31:50.297Z,48.10
2019-01-04T13:34:22.772Z,48.10
2019-01-04T13:36:55.106Z,48.20
2019-01-04T13:39:27.499Z,48.10
2019-01-04T13:41:59.897Z,48.30
2019-01-04T13:44:32.359Z,48.00
2019-01-04T13:47:04.697Z,48.10
2019-01-04T13:49:36.950Z,48.20
2019-01-04T13:52:09.361Z,48.10
2019-01-04T13:54:41.771Z,48.10
2019-01-04T13:57:14.182Z,48.20
2019-01-04T13:59:46.527Z,48.10
2019-01-04T14:02:18.947Z,48.30
2019-01-04T14:04:51.388Z,48.40
2019-01-04T14:07:24.268Z,48.30
2019-01-04T14:09:57.836Z,48.30
2019-01-04T14:12:30.162Z,48.30
2019-01-04T14:15:02.479Z,48.30
2019-01-04T14:17:34.843Z,48.30
2019-01-04T14:20:08.373Z,48.30
2019-01-04T14:22:40.732Z,48.30
2019-01-04T14:25:13.223Z,48.20
2019-01-04T14:27:45.715Z,48.20
2019-01-04T14:30:17.880Z,48.30
2019-01-04T14:32:50.147Z,48.10
2019-01-04T14:35:22.457Z,48.20
2019-01-04T14:37:54.661Z,48.40
2019-01-04T14:40:26.975Z,48.40
2019-01-04T14:42:59.174Z,48.50
2019-01-04T14:45:31.304Z,48.40
2019-01-04T14:48:03.458Z,49.20
2019-01-04T14:50:35.596Z,48.30
2019-01-04T14:53:07.760Z,48.30
2019-01-04T14:55:39.953Z,48.40
2019-01-04T14:58:12.060Z,48.30
2019-01-04T15:00:44.338Z,48.30
2019-01-04T15:03:16.681Z,48.20
2019-01-04T15:05:50.546Z,48.40
2019-01-04T15:08:23.398Z,49.00
2019-01-04T15:10:55.573Z,48.30
2019-01-04T15:13:27.753Z,48.20
2019-01-04T15:15:59.871Z,48.30
2019-01-04T15:18:32.044Z,48.30
2019-01-04T15:21:04.538Z,48.20
2019-01-04T15:23:36.988Z,48.20
2019-01-04T15:26:09.236Z,48.40
2019-01-04T15:28:41.610Z,48.20
2019-01-04T15:31:13.779Z,48.20
2019-01-04T15:33:45.940Z,48.20
2019-01-04T15:36:18.080Z,48.10
2019-01-04T15:38:50.239Z,48.10
2019-01-04T15:41:22.748Z,48.00
2019-01-04T15:43:54.913Z,48.00
2019-01-04T15:46:27.056Z,48.20
2019-01-04T15:48:59.205Z,48.40
2019-01-04T15:51:31.335Z,48.20
2019-01-04T15:54:04.504Z,48.20
2019-01-04T15:56:36.645Z,48.40
2019-01-04T15:59:08.803Z,48.30
2019-01-04T16:01:40.940Z,48.10
2019-01-04T16:04:13.115Z,48.20
2019-01-04T16:06:45.241Z,48.00
2019-01-04T16:09:17.329Z,48.20
2019-01-04T16:11:49.461Z,48.30
2019-01-04T16:14:22.331Z,48.20
2019-01-04T16:16:54.448Z,48.20
2019-01-04T16:19:26.608Z,48.30
2019-01-04T16:21:58.737Z,48.40
2019-01-04T16:24:30.878Z,48.50
2019-01-04T16:27:03.032Z,48.40
2019-01-04T16:29:35.215Z,48.40
2019-01-04T16:32:07.490Z,48.50
2019-01-04T16:34:39.720Z,48.50
2019-01-04T16:37:11.854Z,48.40
2019-01-04T16:39:44.112Z,48.50
2019-01-04T16:42:16.367Z,48.40
2019-01-04T16:44:48.583Z,48.40
2019-01-04T16:47:21.793Z,48.30
2019-01-04T16:49:53.991Z,48.20
2019-01-04T16:52:26.137Z,48.20
2019-01-04T16:54:58.567Z,48.30
2019-01-04T16:57:30.704Z,48.40
2019-01-04T17:00:02.928Z,48.40
2019-01-04T17:02:35.185Z,48.50
2019-01-04T17:05:07.442Z,48.70
2019-01-04T17:07:39.575Z,48.50
2019-01-04T17:10:11.740Z,48.60
2019-01-04T17:12:43.962Z,48.80
2019-01-04T17:15:16.192Z,48.90
2019-01-04T17:17:48.332Z,48.90
2019-01-04T17:20:20.494Z,48.90
2019-01-04T17:22:52.642Z,48.80
2019-01-04T17:25:24.778Z,48.80
2019-01-04T17:27:56.910Z,48.80
2019-01-04T17:30:29.034Z,49.40
2019-01-04T17:33:01.164Z,48.70
2019-01-04T17:35:33.334Z,48.70
2019-01-04T17:38:05.541Z,48.80
2019-01-04T17:40:37.700Z,48.80
2019-01-04T17:43:09.926Z,48.80
2019-01-04T17:45:42.111Z,48.80
2019-01-04T17:48:14.315Z,48.90
2019-01-04T17:50:46.563Z,48.80
2019-01-04T17:53:18.814Z,48.80
2019-01-04T17:55:50.985Z,48.90
2019-01-04T17:58:23.117Z,49.00
2019-01-04T18:00:55.355Z,48.90
2019-01-04T18:03:27.516Z,48.80
2019-01-04T18:05:59.948Z,48.90
2019-01-04T18:08:32.076Z,48.90
2019-01-04T18:11:04.670Z,48.90
2019-01-04T18:13:36.799Z,49.00
2019-01-04T18:16:09.030Z,48.90
2019-01-04T18:18:41.336Z,48.80
2019-01-04T18:21:13.493Z,49.00
2019-01-04T18:23:45.812Z,48.90
2019-01-04T18:26:24.218Z,49.10
2019-01-04T18:28:51.851Z,49.20
2019-01-04T18:31:24.016Z,49.00
2019-01-04T18:33:56.136Z,49.00
2019-01-04T18:36:28.553Z,49.20
2019-01-04T18:39:00.709Z,49.20
2019-01-04T18:41:34.725Z,49.10
2019-01-04T18:44:06.872Z,49.10
2019-01-04T18:46:39.339Z,49.00
2019-01-04T18:49:11.894Z,49.10
2019-01-04T18:51:44.207Z,49.10
2019-01-04T18:54:16.351Z,49.20
2019-01-04T18:56:48.960Z,49.10
2019-01-04T18:59:21.569Z,49.30
2019-01-04T19:01:54.006Z,49.20
2019-01-04T19:04:26.441Z,49.10
2019-01-04T19:06:59.152Z,49.20
2019-01-04T19:09:31.576Z,49.20
2019-01-04T19:12:04.218Z,49.20
2019-01-04T19:14:36.524Z,49.20
2019-01-04T19:17:08.713Z,49.30
2019-01-04T19:19:40.952Z,49.20
2019-01-04T19:22:13.120Z,49.20
2019-01-04T19:24:45.351Z,49.10
2019-01-04T19:27:18.070Z,49.10
2019-01-04T19:29:50.739Z,49.10
2019-01-04T19:32:23.070Z,49.10
2019-01-04T19:34:55.794Z,49.00
2019-01-04T19:37:28.203Z,49.00
2019-01-04T19:40:00.366Z,49.00
2019-01-04T19:42:33.043Z,49.10
2019-01-04T19:45:06.076Z,49.10
2019-01-04T19:47:38.981Z,49.20
2019-01-04T19:50:22.499Z,49.30
2019-01-04T19:52:54.760Z,49.10
2019-01-04T19:55:28.464Z,49.10
2019-01-04T19:58:01.042Z,49.10
2019-01-04T20:00:33.699Z,49.10
2019-01-04T20:03:06.513Z,49.10
2019-01-04T20:06:43.016Z,49.10
2019-01-04T20:10:24.694Z,49.10
2019-01-04T20:14:19.605Z,49.20
2019-01-04T20:17:22.865Z,49.10
2019-01-04T20:20:27.674Z,49.30
2019-01-04T20:23:19.247Z,49.60
2019-01-04T20:26:09.010Z,49.50
2019-01-04T20:28:56.145Z,49.50
2019-01-04T20:32:02.487Z,49.40
2019-01-04T20:34:51.032Z,49.30
2019-01-04T20:37:33.966Z,49.30
2019-01-04T20:40:32.980Z,49.40
2019-01-04T20:43:30.292Z,49.40
2019-01-04T20:46:21.356Z,50.00
2019-01-04T20:49:16.669Z,49.30
2019-01-04T20:51:58.954Z,49.30
2019-01-04T20:54:55.816Z,49.30
2019-01-04T20:57:50.052Z,49.30
2019-01-04T21:00:47.239Z,49.50
2019-01-04T21:03:37.259Z,49.40
2019-01-04T21:06:24.706Z,49.30
2019-01-04T21:09:18.965Z,49.40
2019-01-04T21:12:06.053Z,49.40
2019-01-04T21:14:57.210Z,49.40
2019-01-04T21:18:06.487Z,49.40
2019-01-04T21:21:00.610Z,49.30
2019-01-04T21:23:51.742Z,49.30
2019-01-04T21:26:45.403Z,49.40
2019-01-04T21:29:36.643Z,49.40
2019-01-04T21:32:26.732Z,49.50
2019-01-04T21:35:16.538Z,49.50
2019-01-04T21:38:06.733Z,49.40
2019-01-04T21:41:00.582Z,49.50
2019-01-04T21:43:59.836Z,49.60
2019-01-04T21:46:58.047Z,49.60
2019-01-04T21:49:52.089Z,49.60
2019-01-04T21:52:49.205Z,49.40
2019-01-04T21:55:39.163Z,49.50
2019-01-04T21:58:22.653Z,49.50
2019-01-04T22:01:12.619Z,49.40
2019-01-04T22:04:02.559Z,49.50
2019-01-04T22:06:52.670Z,49.50
2019-01-04T22:09:59.133Z,49.60
2019-01-04T22:12:46.338Z,49.70
2019-01-04T22:15:36.026Z,49.90
2019-01-04T22:18:27.101Z,49.70
2019-01-04T22:21:21.221Z,49.70
2019-01-04T22:24:12.278Z,49.70
2019-01-04T22:27:02.292Z,49.60
2019-01-04T22:29:53.339Z,49.50
2019-01-04T22:32:48.333Z,49.60
2019-01-04T22:35:57.444Z,49.60
2019-01-04T22:39:00.444Z,49.60
2019-01-04T22:41:51.247Z,49.70
2019-01-04T22:44:42.316Z,49.70
2019-01-04T22:47:32.282Z,49.80
2019-01-04T22:50:26.514Z,49.80
2019-01-04T22:53:14.062Z,50.50
2019-01-04T22:56:02.484Z,49.90
2019-01-04T22:58:58.131Z,49.80
2019-01-04T23:01:48.229Z,49.70
2019-01-04T23:04:39.321Z,49.70
2019-01-04T23:07:42.508Z,49.70
2019-01-04T23:10:33.573Z,49.70
2019-01-04T23:13:43.087Z,49.70
2019-01-04T23:16:36.604Z,49.70
2019-01-04T23:19:38.025Z,49.70
2019-01-04T23:22:51.237Z,49.70
2019-01-04T23:25:43.302Z,49.60
2019-01-04T23:28:37.537Z,49.70
2019-01-04T23:31:28.846Z,49.70
2019-01-04T23:34:35.342Z,49.80
2019-01-04T23:37:26.396Z,49.80
2019-01-04T23:40:26.501Z,49.80
2019-01-04T23:43:26.477Z,50.00
2019-01-04T23:46:16.248Z,50.00
2019-01-04T23:49:16.575Z,50.00
2019-01-04T23:52:20.395Z,50.20
2019-01-04T23:55:11.701Z,50.20
2019-01-04T23:58:18.025Z,50.40
